Terminal Aerodrome Forecast
Issued by NWS Atlanta, GA

Home | Current Version | Previous Version | Text Only | Print | Product List | Glossary On
Versions: 1 2 3 4 5 6 7 8 9 10 11 12 13 14 15
000
FTUS42 KFFC 221740
TAFMCN
TAF
KMCN 221740Z 2218/2318 04006KT P6SM FEW045
     FM230200 00000KT P6SM SKC
     FM231400 09007KT P6SM FEW045=

USA.gov is the U.S. government's official web portal to all federal, state and local government web resources and services.